createdAt,value
2018-01-27T00:01:09.074Z,20.50
2018-01-27T00:03:37.368Z,17.30
2018-01-27T00:06:04.830Z,19.90
2018-01-27T00:08:32.317Z,20.48
2018-01-27T00:11:00.563Z,19.42
2018-01-27T00:13:28.127Z,19.02
2018-01-27T00:15:55.683Z,19.50
2018-01-27T00:18:23.169Z,18.75
2018-01-27T00:20:50.658Z,18.85
2018-01-27T00:23:18.909Z,20.90
2018-01-27T00:25:46.393Z,18.85
2018-01-27T00:28:13.887Z,21.05
2018-01-27T00:30:41.366Z,21.75
2018-01-27T00:33:08.850Z,21.17
2018-01-27T00:35:36.427Z,19.90
2018-01-27T00:38:03.969Z,21.92
2018-01-27T00:40:31.456Z,20.80
2018-01-27T00:42:59.760Z,21.08
2018-01-27T00:45:27.369Z,21.30
2018-01-27T00:47:54.844Z,22.52
2018-01-27T00:50:23.123Z,19.70
2018-01-27T00:52:51.374Z,19.48
2018-01-27T00:55:18.861Z,19.83
2018-01-27T00:57:47.153Z,21.60
2018-01-27T01:00:14.633Z,20.45
2018-01-27T01:02:42.122Z,20.80
2018-01-27T01:05:09.619Z,19.58
2018-01-27T01:07:37.101Z,21.27
2018-01-27T01:10:04.609Z,20.55
2018-01-27T01:12:32.114Z,20.00
2018-01-27T01:14:59.597Z,20.30
2018-01-27T01:17:27.698Z,22.13
2018-01-27T01:19:57.058Z,21.52
2018-01-27T01:22:24.572Z,21.70
2018-01-27T01:24:52.821Z,20.88
2018-01-27T01:27:20.338Z,20.70
2018-01-27T01:29:47.868Z,21.45
2018-01-27T01:32:15.381Z,18.48
2018-01-27T01:34:42.870Z,21.58
2018-01-27T01:37:10.414Z,19.80
2018-01-27T01:39:37.892Z,21.12
2018-01-27T01:42:05.366Z,20.08
2018-01-27T01:44:33.777Z,20.02
2018-01-27T01:47:01.262Z,24.27
2018-01-27T01:49:28.747Z,22.77
2018-01-27T01:51:56.244Z,24.73
2018-01-27T01:54:23.721Z,27.30
2018-01-27T01:56:51.197Z,29.30
2018-01-27T01:59:18.693Z,30.17
2018-01-27T02:01:46.968Z,28.95
2018-01-27T02:04:14.482Z,31.20
2018-01-27T02:06:41.981Z,31.37
2018-01-27T02:09:10.230Z,30.48
2018-01-27T02:11:37.719Z,33.42
2018-01-27T02:14:05.238Z,30.20
2018-01-27T02:16:32.726Z,29.33
2018-01-27T02:19:00.982Z,30.67
2018-01-27T02:21:28.637Z,28.85
2018-01-27T02:23:56.188Z,30.42
2018-01-27T02:26:23.662Z,30.85
2018-01-27T02:28:51.162Z,29.27
2018-01-27T02:31:18.666Z,29.95
2018-01-27T02:33:46.150Z,32.42
2018-01-27T02:36:13.710Z,32.53
2018-01-27T02:38:41.217Z,31.05
2018-01-27T02:41:08.701Z,30.17
2018-01-27T02:43:36.199Z,30.83
2018-01-27T02:46:03.686Z,30.65
2018-01-27T02:48:31.178Z,30.23
2018-01-27T02:50:58.680Z,28.87
2018-01-27T02:53:26.922Z,28.45
2018-01-27T02:55:54.418Z,28.77
2018-01-27T02:58:21.943Z,28.17
2018-01-27T03:00:49.413Z,28.25
2018-01-27T03:03:18.157Z,27.77
2018-01-27T03:05:45.778Z,27.80
2018-01-27T03:08:14.027Z,24.20
2018-01-27T03:10:41.501Z,25.00
2018-01-27T03:13:09.770Z,24.00
2018-01-27T03:15:37.272Z,23.80
2018-01-27T03:18:04.756Z,23.80
2018-01-27T03:20:32.253Z,23.62
2018-01-27T03:23:00.501Z,23.55
2018-01-27T03:25:27.985Z,23.50
2018-01-27T03:27:56.253Z,23.30
2018-01-27T03:30:23.733Z,25.33
2018-01-27T03:32:51.990Z,23.62
2018-01-27T03:35:19.490Z,19.65
2018-01-27T03:37:47.027Z,19.77
2018-01-27T03:40:15.272Z,20.30
2018-01-27T03:42:42.749Z,20.83
2018-01-27T03:45:11.039Z,20.02
2018-01-27T03:47:39.297Z,21.10
2018-01-27T03:50:06.837Z,19.15
2018-01-27T03:52:34.381Z,18.87
2018-01-27T03:55:01.862Z,18.37
2018-01-27T03:57:29.344Z,17.58
2018-01-27T03:59:56.868Z,16.10
2018-01-27T04:02:25.117Z,15.25
2018-01-27T04:04:52.693Z,10.70
2018-01-27T04:07:20.189Z,11.32
2018-01-27T04:09:48.437Z,9.15
2018-01-27T04:12:16.014Z,9.73
2018-01-27T04:14:43.526Z,12.27
2018-01-27T04:17:11.020Z,12.70
2018-01-27T04:19:38.572Z,14.30
2018-01-27T04:22:06.631Z,10.45
2018-01-27T04:24:34.118Z,14.87
2018-01-27T04:27:01.618Z,14.45
2018-01-27T04:29:29.125Z,13.88
2018-01-27T04:31:56.611Z,14.82
2018-01-27T04:34:24.090Z,14.30
2018-01-27T04:36:51.625Z,15.73
2018-01-27T04:39:19.878Z,13.98
2018-01-27T04:41:47.361Z,12.60
2018-01-27T04:44:15.671Z,14.10
2018-01-27T04:46:43.151Z,15.02
2018-01-27T04:49:10.646Z,12.80
2018-01-27T04:51:38.157Z,13.75
2018-01-27T04:54:05.645Z,12.80
2018-01-27T04:56:33.121Z,14.27
2018-01-27T04:59:00.637Z,14.60
2018-01-27T05:01:28.121Z,12.93
2018-01-27T05:03:55.597Z,14.87
2018-01-27T05:06:24.289Z,13.25
2018-01-27T05:08:52.661Z,12.77
2018-01-27T05:11:20.149Z,12.68
2018-01-27T05:13:47.634Z,11.73
2018-01-27T05:16:15.113Z,9.90
2018-01-27T05:18:42.620Z,11.38
2018-01-27T05:21:10.859Z,10.45
2018-01-27T05:23:38.397Z,10.30
2018-01-27T05:26:05.934Z,9.75
2018-01-27T05:28:33.433Z,11.23
2018-01-27T05:31:00.929Z,10.20
2018-01-27T05:33:28.445Z,10.60
2018-01-27T05:35:55.929Z,10.73
2018-01-27T05:38:23.466Z,11.55
2018-01-27T05:40:50.962Z,12.25
2018-01-27T05:43:19.222Z,11.00
2018-01-27T05:45:46.722Z,11.45
2018-01-27T05:48:14.197Z,12.02
2018-01-27T05:50:41.677Z,12.48
2018-01-27T05:53:09.178Z,12.57
2018-01-27T05:55:36.657Z,11.80
2018-01-27T05:58:04.137Z,11.82
2018-01-27T06:00:31.687Z,11.77
2018-01-27T06:02:59.217Z,12.80
2018-01-27T06:05:26.703Z,15.07
2018-01-27T06:07:54.208Z,14.80
2018-01-27T06:10:22.501Z,16.45
2018-01-27T06:12:49.958Z,15.40
2018-01-27T06:15:18.217Z,16.80
2018-01-27T06:17:45.697Z,16.95
2018-01-27T06:20:13.190Z,17.98
2018-01-27T06:22:40.693Z,19.80
2018-01-27T06:25:08.205Z,21.10
2018-01-27T06:27:35.728Z,21.08
2018-01-27T06:30:04.040Z,20.55
2018-01-27T06:32:31.518Z,21.12
2018-01-27T06:34:59.010Z,21.33
2018-01-27T06:37:27.306Z,13.10
2018-01-27T06:39:54.841Z,14.87
2018-01-27T06:42:22.453Z,17.35
2018-01-27T06:44:50.009Z,19.12
2018-01-27T06:47:17.978Z,20.12
2018-01-27T06:49:45.946Z,18.92
2018-01-27T06:52:13.492Z,19.67
2018-01-27T06:54:41.021Z,20.12
2018-01-27T06:57:08.624Z,21.25
2018-01-27T06:59:36.756Z,20.75
2018-01-27T07:04:39.881Z,21.02
2018-01-27T07:07:08.233Z,20.80
2018-01-27T07:09:35.890Z,20.25
2018-01-27T07:12:03.437Z,21.58
2018-01-27T07:14:30.960Z,22.27
2018-01-27T07:16:58.453Z,26.02
2018-01-27T07:19:26.207Z,26.25
2018-01-27T07:21:53.701Z,29.90
2018-01-27T07:24:21.177Z,33.03
2018-01-27T07:26:49.645Z,29.02
2018-01-27T07:29:17.897Z,30.15
2018-01-27T07:31:45.394Z,29.77
2018-01-27T07:34:13.653Z,29.95
2018-01-27T07:36:41.135Z,30.70
2018-01-27T07:39:08.621Z,31.10
2018-01-27T07:41:36.162Z,29.00
2018-01-27T07:44:03.649Z,29.00
2018-01-27T07:46:31.135Z,28.00
2018-01-27T07:48:58.622Z,30.10
2018-01-27T07:51:26.884Z,26.33
2018-01-27T07:53:54.418Z,29.37
2018-01-27T07:56:22.121Z,31.50
2018-01-27T07:58:50.370Z,29.75
2018-01-27T08:01:17.856Z,31.37
2018-01-27T08:03:46.117Z,32.17
2018-01-27T08:06:13.602Z,30.98
2018-01-27T08:08:41.176Z,33.53
2018-01-27T08:11:08.689Z,33.20
2018-01-27T08:13:36.173Z,35.35
2018-01-27T08:16:03.737Z,33.60
2018-01-27T08:18:31.979Z,34.45
2018-01-27T08:20:59.561Z,31.65
2018-01-27T08:23:27.149Z,33.08
2018-01-27T08:25:54.684Z,31.77
2018-01-27T08:28:22.225Z,31.23
2018-01-27T08:30:49.769Z,31.33
2018-01-27T08:33:17.262Z,30.85
2018-01-27T08:35:45.566Z,34.15
2018-01-27T08:38:13.100Z,30.50
2018-01-27T08:40:40.617Z,29.60
2018-01-27T08:43:08.114Z,31.80
2018-01-27T08:45:36.358Z,31.08
2018-01-27T08:48:03.833Z,29.23
2018-01-27T08:50:31.336Z,31.00
2018-01-27T08:53:00.010Z,28.50
2018-01-27T08:55:27.497Z,30.27
2018-01-27T08:57:56.562Z,35.90
2018-01-27T09:00:24.070Z,35.05
2018-01-27T09:02:51.569Z,34.20
2018-01-27T09:05:19.914Z,34.72
2018-01-27T09:07:47.401Z,35.28
2018-01-27T09:10:14.894Z,33.78
2018-01-27T09:12:43.070Z,33.15
2018-01-27T09:15:10.562Z,35.08
2018-01-27T09:17:38.079Z,34.53
2018-01-27T09:20:05.695Z,33.55
2018-01-27T09:22:33.237Z,33.90
2018-01-27T09:25:00.727Z,32.92
2018-01-27T09:27:28.981Z,34.85
2018-01-27T09:29:57.137Z,29.77
2018-01-27T09:32:24.636Z,32.25
2018-01-27T09:34:52.899Z,31.73
2018-01-27T09:37:20.610Z,24.27
2018-01-27T09:39:48.094Z,29.67
2018-01-27T09:42:15.582Z,28.67
2018-01-27T09:44:43.088Z,25.80
2018-01-27T09:47:10.617Z,27.30
2018-01-27T09:49:38.903Z,27.80
2018-01-27T09:52:06.378Z,26.17
2018-01-27T09:54:33.879Z,26.90
2018-01-27T09:57:01.370Z,25.02
2018-01-27T09:59:28.883Z,27.40
2018-01-27T10:01:56.366Z,29.10
2018-01-27T10:04:23.850Z,29.02
2018-01-27T10:06:51.337Z,28.05
2018-01-27T10:09:19.137Z,28.50
2018-01-27T10:11:46.658Z,25.98
2018-01-27T10:14:14.129Z,26.30
2018-01-27T10:16:42.425Z,27.08
2018-01-27T10:19:09.928Z,25.80
2018-01-27T10:21:38.177Z,24.98
2018-01-27T10:24:05.661Z,25.62
2018-01-27T10:26:33.140Z,21.48
2018-01-27T10:29:00.643Z,24.30
2018-01-27T10:31:28.125Z,21.90
2018-01-27T10:33:56.481Z,22.80
2018-01-27T10:36:24.785Z,23.60
2018-01-27T10:38:53.058Z,23.73
2018-01-27T10:41:21.308Z,24.80
2018-01-27T10:43:48.791Z,23.38
2018-01-27T10:46:17.147Z,26.92
2018-01-27T10:48:44.633Z,22.35
2018-01-27T10:51:12.894Z,24.17
2018-01-27T10:53:40.471Z,26.95
2018-01-27T10:56:08.711Z,24.60
2018-01-27T10:58:36.198Z,24.95
2018-01-27T11:01:04.458Z,26.20
2018-01-27T11:03:31.994Z,23.60
2018-01-27T11:05:59.481Z,25.40
2018-01-27T11:08:26.969Z,24.77
2018-01-27T11:10:54.449Z,26.60
2018-01-27T11:13:21.945Z,28.05
2018-01-27T11:15:49.634Z,27.30
2018-01-27T11:18:17.882Z,28.00
2018-01-27T11:20:45.420Z,25.92
2018-01-27T11:23:12.928Z,27.13
2018-01-27T11:25:41.174Z,24.90
2018-01-27T11:28:08.791Z,25.20
2018-01-27T11:30:36.526Z,24.60
2018-01-27T11:33:04.778Z,24.85
2018-01-27T11:35:32.263Z,22.80
2018-01-27T11:38:00.573Z,24.92
2018-01-27T11:40:28.166Z,21.98
2018-01-27T11:42:55.768Z,21.73
2018-01-27T11:45:23.310Z,22.65
2018-01-27T11:47:50.790Z,22.30
2018-01-27T11:50:19.630Z,21.35
2018-01-27T11:52:47.238Z,21.05
2018-01-27T11:55:14.761Z,22.37
2018-01-27T11:57:42.489Z,18.58
2018-01-27T12:00:10.030Z,17.62
2018-01-27T12:02:38.250Z,20.25
2018-01-27T12:05:05.769Z,20.95
2018-01-27T12:07:34.184Z,18.10
2018-01-27T12:10:01.662Z,18.15
2018-01-27T12:12:29.146Z,18.85
2018-01-27T12:14:57.423Z,19.50
2018-01-27T12:17:24.990Z,19.50
2018-01-27T12:19:52.486Z,17.65
2018-01-27T12:22:20.000Z,19.65
2018-01-27T12:24:48.254Z,17.27
2018-01-27T12:27:15.736Z,20.50
2018-01-27T12:29:44.042Z,19.60
2018-01-27T12:32:11.529Z,20.88
2018-01-27T12:34:39.002Z,21.50
2018-01-27T12:37:06.529Z,22.17
2018-01-27T12:39:34.005Z,20.85
2018-01-27T12:42:01.719Z,20.55
2018-01-27T12:44:29.992Z,19.00
2018-01-27T12:46:58.246Z,20.27
2018-01-27T12:49:25.730Z,20.17
2018-01-27T12:51:53.954Z,18.37
2018-01-27T12:54:21.437Z,18.50
2018-01-27T12:56:48.914Z,19.37
2018-01-27T12:59:17.225Z,18.05
2018-01-27T13:01:44.710Z,18.73
2018-01-27T13:04:12.189Z,19.12
2018-01-27T13:06:39.707Z,17.00
2018-01-27T13:09:07.205Z,16.65
2018-01-27T13:11:34.730Z,18.45
2018-01-27T13:14:02.229Z,19.50
2018-01-27T13:16:30.482Z,19.58
2018-01-27T13:18:58.126Z,20.20
2018-01-27T13:21:25.621Z,19.30
2018-01-27T13:23:53.875Z,22.05
2018-01-27T13:26:21.375Z,21.50
2018-01-27T13:28:50.691Z,19.80
2018-01-27T13:31:18.182Z,19.05
2018-01-27T13:33:45.670Z,18.55
2018-01-27T13:36:13.148Z,19.40
2018-01-27T13:38:41.397Z,17.33
2018-01-27T13:41:09.077Z,18.92
2018-01-27T13:43:37.330Z,18.48
2018-01-27T13:46:04.822Z,16.40
2018-01-27T13:48:33.104Z,16.20
2018-01-27T13:51:01.426Z,17.58
2018-01-27T13:53:28.946Z,16.80
2018-01-27T13:55:56.518Z,16.90
2018-01-27T13:58:24.008Z,16.60
2018-01-27T14:00:51.482Z,16.92
2018-01-27T14:03:19.033Z,18.73
2018-01-27T14:05:46.518Z,19.98
2018-01-27T14:08:14.018Z,19.80
2018-01-27T14:10:41.529Z,18.02
2018-01-27T14:13:09.854Z,19.35
2018-01-27T14:15:38.064Z,19.52
2018-01-27T14:18:05.620Z,15.90
2018-01-27T14:20:33.125Z,16.83
2018-01-27T14:23:00.601Z,17.48
2018-01-27T14:25:28.132Z,18.62
2018-01-27T14:27:56.393Z,17.33
2018-01-27T14:30:24.643Z,15.95
2018-01-27T14:32:52.162Z,16.60
2018-01-27T14:35:19.649Z,15.23
2018-01-27T14:37:47.133Z,15.35
2018-01-27T14:40:14.671Z,15.63
2018-01-27T14:42:42.154Z,20.77
2018-01-27T14:45:10.433Z,19.10
2018-01-27T14:47:38.717Z,17.83
2018-01-27T14:50:06.965Z,18.98
2018-01-27T14:52:34.461Z,15.15
2018-01-27T14:55:02.773Z,15.75
2018-01-27T14:57:30.274Z,17.37
2018-01-27T14:59:57.749Z,17.77
2018-01-27T15:02:26.025Z,16.85
2018-01-27T15:04:54.350Z,16.87
2018-01-27T15:07:21.857Z,16.20
2018-01-27T15:09:49.377Z,15.48
2018-01-27T15:12:16.874Z,13.52
2018-01-27T15:14:45.145Z,13.38
2018-01-27T15:17:12.673Z,14.25
2018-01-27T15:19:40.161Z,11.63
2018-01-27T15:22:08.440Z,11.55
2018-01-27T15:24:36.715Z,12.05
2018-01-27T15:27:05.047Z,13.70
2018-01-27T15:29:32.550Z,12.88
2018-01-27T15:32:00.831Z,12.95
2018-01-27T15:34:29.112Z,12.00
2018-01-27T15:36:57.378Z,13.07
2018-01-27T15:39:25.642Z,11.80
2018-01-27T15:41:53.244Z,12.10
2018-01-27T15:44:20.750Z,11.68
2018-01-27T15:46:48.321Z,12.02
2018-01-27T15:49:15.869Z,14.35
2018-01-27T15:51:43.375Z,12.77
2018-01-27T15:54:10.858Z,10.93
2018-01-27T15:56:38.370Z,11.15
2018-01-27T15:59:06.623Z,12.32
2018-01-27T16:01:34.105Z,10.77
2018-01-27T16:04:02.399Z,10.15
2018-01-27T16:06:29.882Z,13.05
2018-01-27T16:08:57.409Z,13.50
2018-01-27T16:11:24.926Z,11.70
2018-01-27T16:13:52.836Z,10.32
2018-01-27T16:16:20.324Z,11.70
2018-01-27T16:18:47.841Z,11.95
2018-01-27T16:21:16.097Z,11.25
2018-01-27T16:23:43.573Z,9.43
2018-01-27T16:26:11.857Z,10.60
2018-01-27T16:28:40.097Z,9.27
2018-01-27T16:31:07.782Z,11.00
2018-01-27T16:33:36.037Z,11.20
2018-01-27T16:36:03.550Z,11.82
2018-01-27T16:38:31.087Z,10.18
2018-01-27T16:40:59.330Z,11.25
2018-01-27T16:43:26.810Z,11.88
2018-01-27T16:45:55.677Z,10.55
2018-01-27T16:48:23.170Z,12.55
2018-01-27T16:50:52.617Z,12.37
2018-01-27T16:53:20.128Z,10.98
2018-01-27T16:55:48.378Z,11.52
2018-01-27T16:58:15.874Z,13.55
2018-01-27T17:00:43.374Z,12.95
2018-01-27T17:03:10.865Z,13.62
2018-01-27T17:05:39.174Z,12.30
2018-01-27T17:08:06.669Z,12.15
2018-01-27T17:10:34.918Z,12.13
2018-01-27T17:13:02.434Z,12.82
2018-01-27T17:15:30.713Z,12.30
2018-01-27T17:17:58.958Z,14.63
2018-01-27T17:20:26.450Z,14.93
2018-01-27T17:22:54.762Z,13.38
2018-01-27T17:25:22.261Z,13.62
2018-01-27T17:27:49.787Z,13.62
2018-01-27T17:30:17.336Z,14.95
2018-01-27T17:32:44.814Z,13.30
2018-01-27T17:35:12.314Z,14.20
2018-01-27T17:37:40.570Z,13.60
2018-01-27T17:40:08.060Z,13.13
2018-01-27T17:42:36.317Z,13.10
2018-01-27T17:45:03.838Z,13.80
2018-01-27T17:47:31.337Z,15.77
2018-01-27T17:49:59.605Z,15.57
2018-01-27T17:52:27.114Z,15.10
2018-01-27T17:54:54.622Z,14.30
2018-01-27T17:57:22.114Z,17.05
2018-01-27T17:59:49.653Z,15.98
2018-01-27T18:02:17.906Z,14.65
2018-01-27T18:04:45.401Z,16.00
2018-01-27T18:07:12.898Z,16.55
2018-01-27T18:09:40.390Z,16.23
2018-01-27T18:12:07.870Z,15.13
2018-01-27T18:14:36.739Z,16.42
2018-01-27T18:17:04.226Z,14.52
2018-01-27T18:19:31.728Z,15.02
2018-01-27T18:21:59.210Z,14.98
2018-01-27T18:24:26.695Z,15.07
2018-01-27T18:26:54.454Z,12.32
2018-01-27T18:29:22.726Z,14.15
2018-01-27T18:31:50.241Z,15.35
2018-01-27T18:34:17.753Z,14.23
2018-01-27T18:36:46.101Z,14.07
2018-01-27T18:39:13.633Z,13.77
2018-01-27T18:41:41.130Z,14.50
2018-01-27T18:44:09.390Z,15.05
2018-01-27T18:46:36.886Z,14.00
2018-01-27T18:49:04.537Z,14.93
2018-01-27T18:51:32.786Z,13.93
2018-01-27T18:54:00.278Z,15.48
2018-01-27T18:56:27.777Z,14.27
2018-01-27T18:58:55.323Z,16.83
2018-01-27T19:01:22.820Z,15.13
2018-01-27T19:03:50.902Z,13.77
2018-01-27T19:06:19.172Z,13.50
2018-01-27T19:08:46.653Z,15.02
2018-01-27T19:11:14.165Z,13.93
2018-01-27T19:13:41.922Z,13.95
2018-01-27T19:16:09.459Z,14.10
2018-01-27T19:18:36.949Z,13.18
2018-01-27T19:21:05.210Z,15.70
2018-01-27T19:23:32.751Z,14.85
2018-01-27T19:26:00.233Z,12.75
2018-01-27T19:28:27.713Z,12.37
2018-01-27T19:30:55.199Z,14.52
2018-01-27T19:33:23.501Z,13.62
2018-01-27T19:35:50.982Z,13.50
2018-01-27T19:38:18.477Z,14.43
2018-01-27T19:40:46.887Z,13.93
2018-01-27T19:43:14.393Z,15.55
2018-01-27T19:45:42.635Z,14.27
2018-01-27T19:48:10.190Z,12.93
2018-01-27T19:50:37.670Z,15.48
2018-01-27T19:53:06.849Z,15.30
2018-01-27T19:55:34.407Z,13.10
2018-01-27T19:58:01.889Z,12.55
2018-01-27T20:00:30.203Z,16.12
2018-01-27T20:02:58.479Z,14.52
2018-01-27T20:05:26.753Z,14.40
2018-01-27T20:07:55.558Z,17.27
2018-01-27T20:10:23.343Z,16.20
2018-01-27T20:12:50.941Z,17.15
2018-01-27T20:15:20.081Z,15.82
2018-01-27T20:17:48.529Z,15.25
2018-01-27T20:20:17.206Z,17.55
2018-01-27T20:22:45.272Z,14.20
2018-01-27T20:25:14.256Z,15.88
2018-01-27T20:27:42.214Z,15.18
2018-01-27T20:30:10.512Z,13.88
2018-01-27T20:32:38.434Z,15.20
2018-01-27T20:35:06.161Z,16.85
2018-01-27T20:37:34.643Z,17.60
2018-01-27T20:40:06.266Z,14.73
2018-01-27T20:42:34.099Z,15.95
2018-01-27T20:45:02.165Z,16.67
2018-01-27T20:47:29.936Z,17.15
2018-01-27T20:49:57.857Z,14.30
2018-01-27T20:52:25.607Z,17.60
2018-01-27T20:54:54.447Z,17.92
2018-01-27T20:57:22.542Z,17.83
2018-01-27T20:59:50.616Z,17.58
2018-01-27T21:02:18.250Z,18.40
2018-01-27T21:04:45.862Z,18.73
2018-01-27T21:07:14.546Z,20.25
2018-01-27T21:09:43.377Z,20.67
2018-01-27T21:12:11.094Z,20.23
2018-01-27T21:14:39.995Z,21.05
2018-01-27T21:17:08.710Z,20.60
2018-01-27T21:19:37.393Z,21.42
2018-01-27T21:22:05.817Z,24.92
2018-01-27T21:24:33.397Z,21.65
2018-01-27T21:27:02.042Z,23.05
2018-01-27T21:29:30.994Z,21.67
2018-01-27T21:32:03.633Z,22.33
2018-01-27T21:34:31.153Z,26.00
2018-01-27T21:37:00.876Z,24.58
2018-01-27T21:39:29.290Z,25.77
2018-01-27T21:41:57.377Z,25.40
2018-01-27T21:44:26.266Z,22.95
2018-01-27T21:46:54.152Z,25.10
2018-01-27T21:49:21.665Z,24.80
2018-01-27T21:51:49.202Z,28.70
2018-01-27T21:54:16.813Z,24.67
2018-01-27T21:56:45.619Z,18.95
2018-01-27T21:59:13.155Z,26.02
2018-01-27T22:01:40.763Z,27.70
2018-01-27T22:04:08.327Z,28.67
2018-01-27T22:06:37.911Z,29.52
2018-01-27T22:09:05.538Z,23.55
2018-01-27T22:11:33.077Z,30.10
2018-01-27T22:14:02.549Z,29.45
2018-01-27T22:16:30.150Z,28.92
2018-01-27T22:18:57.642Z,29.87
2018-01-27T22:21:25.275Z,26.37
2018-01-27T22:23:52.854Z,26.77
2018-01-27T22:26:20.455Z,26.62
2018-01-27T22:28:48.093Z,26.67
2018-01-27T22:31:15.578Z,24.00
2018-01-27T22:33:43.847Z,27.35
2018-01-27T22:36:12.101Z,25.77
2018-01-27T22:38:39.585Z,27.37
2018-01-27T22:41:08.066Z,25.52
2018-01-27T22:43:36.313Z,25.88
2018-01-27T22:46:03.807Z,24.70
2018-01-27T22:48:32.113Z,25.65
2018-01-27T22:50:59.595Z,24.73
2018-01-27T22:53:27.091Z,24.65
2018-01-27T22:55:55.361Z,26.35
2018-01-27T22:58:23.614Z,25.67
2018-01-27T23:00:56.801Z,22.13
2018-01-27T23:03:24.301Z,21.77
2018-01-27T23:05:52.566Z,21.62
2018-01-27T23:08:20.889Z,21.33
2018-01-27T23:10:48.394Z,21.67
2018-01-27T23:13:15.870Z,22.40
2018-01-27T23:15:45.981Z,24.55
2018-01-27T23:18:14.318Z,24.37
2018-01-27T23:20:41.806Z,23.73
2018-01-27T23:23:09.277Z,24.85
2018-01-27T23:25:36.793Z,23.90
2018-01-27T23:28:04.278Z,25.27
2018-01-27T23:30:31.757Z,25.23
2018-01-27T23:32:59.278Z,22.37
2018-01-27T23:35:26.765Z,23.45
2018-01-27T23:37:54.265Z,24.33
2018-01-27T23:40:22.528Z,19.95
2018-01-27T23:42:50.013Z,23.55
2018-01-27T23:45:17.498Z,24.60
2018-01-27T23:47:45.021Z,23.92
2018-01-27T23:50:12.503Z,21.50
2018-01-27T23:52:39.990Z,18.83
2018-01-27T23:55:08.253Z,21.58
2018-01-27T23:57:36.505Z,23.40
